sensor_id;sensor_type;location;lat;lon;timestamp;P1;durP1;ratioP1;P2;durP2;ratioP2
73276;SDS011;61501;43.316;5.372;2023-12-14T00:00:45;1.88;;;0.90;;
73276;SDS011;61501;43.316;5.372;2023-12-14T00:03:11;1.77;;;1.08;;
73276;SDS011;61501;43.316;5.372;2023-12-14T00:05:37;1.20;;;0.90;;
73276;SDS011;61501;43.316;5.372;2023-12-14T00:08:02;2.47;;;0.95;;
73276;SDS011;61501;43.316;5.372;2023-12-14T00:10:28;1.50;;;0.88;;
73276;SDS011;61501;43.316;5.372;2023-12-14T00:12:54;1.13;;;0.80;;
73276;SDS011;61501;43.316;5.372;2023-12-14T00:15:20;1.45;;;0.90;;
73276;SDS011;61501;43.316;5.372;2023-12-14T00:17:46;1.45;;;1.00;;
73276;SDS011;61501;43.316;5.372;2023-12-14T00:20:12;0.98;;;0.80;;
73276;SDS011;61501;43.316;5.372;2023-12-14T00:22:37;2.50;;;1.30;;
73276;SDS011;61501;43.316;5.372;2023-12-14T00:25:03;2.42;;;1.20;;
73276;SDS011;61501;43.316;5.372;2023-12-14T00:27:30;2.00;;;0.90;;
73276;SDS011;61501;43.316;5.372;2023-12-14T00:29:56;5.15;;;1.38;;
73276;SDS011;61501;43.316;5.372;2023-12-14T00:32:21;3.25;;;1.17;;
73276;SDS011;61501;43.316;5.372;2023-12-14T00:34:47;3.10;;;1.25;;
73276;SDS011;61501;43.316;5.372;2023-12-14T00:37:13;3.53;;;1.15;;
73276;SDS011;61501;43.316;5.372;2023-12-14T00:39:39;3.00;;;1.10;;
73276;SDS011;61501;43.316;5.372;2023-12-14T00:42:05;2.35;;;1.17;;
73276;SDS011;61501;43.316;5.372;2023-12-14T00:44:30;4.75;;;1.10;;
73276;SDS011;61501;43.316;5.372;2023-12-14T00:46:56;2.33;;;1.13;;
73276;SDS011;61501;43.316;5.372;2023-12-14T00:49:23;2.72;;;1.17;;
73276;SDS011;61501;43.316;5.372;2023-12-14T00:51:49;2.92;;;1.30;;
73276;SDS011;61501;43.316;5.372;2023-12-14T00:54:15;2.03;;;1.10;;
73276;SDS011;61501;43.316;5.372;2023-12-14T00:56:40;1.80;;;1.17;;
73276;SDS011;61501;43.316;5.372;2023-12-14T00:59:06;2.13;;;1.13;;
73276;SDS011;61501;43.316;5.372;2023-12-14T01:01:31;4.65;;;1.33;;
73276;SDS011;61501;43.316;5.372;2023-12-14T01:03:57;1.80;;;1.40;;
73276;SDS011;61501;43.316;5.372;2023-12-14T01:06:24;1.92;;;1.33;;
73276;SDS011;61501;43.316;5.372;2023-12-14T01:08:50;2.40;;;1.40;;
73276;SDS011;61501;43.316;5.372;2023-12-14T01:11:15;1.60;;;1.30;;
73276;SDS011;61501;43.316;5.372;2023-12-14T01:13:41;1.70;;;1.30;;
73276;SDS011;61501;43.316;5.372;2023-12-14T01:16:07;1.80;;;1.23;;
73276;SDS011;61501;43.316;5.372;2023-12-14T01:18:33;3.13;;;1.25;;
73276;SDS011;61501;43.316;5.372;2023-12-14T01:20:58;3.78;;;1.40;;
73276;SDS011;61501;43.316;5.372;2023-12-14T01:23:24;3.15;;;1.60;;
73276;SDS011;61501;43.316;5.372;2023-12-14T01:25:49;1.92;;;1.42;;
73276;SDS011;61501;43.316;5.372;2023-12-14T01:28:15;2.53;;;1.50;;
73276;SDS011;61501;43.316;5.372;2023-12-14T01:30:41;3.78;;;1.60;;
73276;SDS011;61501;43.316;5.372;2023-12-14T01:33:06;2.10;;;1.67;;
73276;SDS011;61501;43.316;5.372;2023-12-14T01:35:32;1.98;;;1.35;;
73276;SDS011;61501;43.316;5.372;2023-12-14T01:37:57;3.47;;;1.40;;
73276;SDS011;61501;43.316;5.372;2023-12-14T01:40:23;2.83;;;1.40;;
73276;SDS011;61501;43.316;5.372;2023-12-14T01:42:49;2.00;;;1.30;;
73276;SDS011;61501;43.316;5.372;2023-12-14T01:45:14;3.83;;;1.30;;
73276;SDS011;61501;43.316;5.372;2023-12-14T01:47:42;2.00;;;1.30;;
73276;SDS011;61501;43.316;5.372;2023-12-14T01:50:08;2.40;;;1.40;;
73276;SDS011;61501;43.316;5.372;2023-12-14T01:52:34;2.45;;;1.63;;
73276;SDS011;61501;43.316;5.372;2023-12-14T01:54:59;1.95;;;1.15;;
73276;SDS011;61501;43.316;5.372;2023-12-14T01:57:27;2.33;;;1.50;;
73276;SDS011;61501;43.316;5.372;2023-12-14T01:59:53;3.33;;;1.30;;
73276;SDS011;61501;43.316;5.372;2023-12-14T02:02:19;1.75;;;1.20;;
73276;SDS011;61501;43.316;5.372;2023-12-14T02:04:44;3.65;;;1.27;;
73276;SDS011;61501;43.316;5.372;2023-12-14T02:07:10;2.30;;;1.30;;
73276;SDS011;61501;43.316;5.372;2023-12-14T02:09:36;1.70;;;1.23;;
73276;SDS011;61501;43.316;5.372;2023-12-14T02:12:02;1.90;;;1.15;;
73276;SDS011;61501;43.316;5.372;2023-12-14T02:14:27;2.78;;;1.40;;
73276;SDS011;61501;43.316;5.372;2023-12-14T02:16:53;2.03;;;1.20;;
73276;SDS011;61501;43.316;5.372;2023-12-14T02:19:19;1.92;;;1.40;;
73276;SDS011;61501;43.316;5.372;2023-12-14T02:21:44;2.33;;;1.40;;
73276;SDS011;61501;43.316;5.372;2023-12-14T02:24:10;2.75;;;1.30;;
73276;SDS011;61501;43.316;5.372;2023-12-14T02:26:36;1.98;;;1.20;;
73276;SDS011;61501;43.316;5.372;2023-12-14T02:29:01;3.28;;;1.65;;
73276;SDS011;61501;43.316;5.372;2023-12-14T02:31:27;2.72;;;1.35;;
73276;SDS011;61501;43.316;5.372;2023-12-14T02:33:52;3.08;;;1.70;;
73276;SDS011;61501;43.316;5.372;2023-12-14T02:36:18;3.80;;;1.30;;
73276;SDS011;61501;43.316;5.372;2023-12-14T02:38:44;2.47;;;1.23;;
73276;SDS011;61501;43.316;5.372;2023-12-14T02:41:10;1.92;;;1.20;;
73276;SDS011;61501;43.316;5.372;2023-12-14T02:43:35;1.80;;;1.20;;
73276;SDS011;61501;43.316;5.372;2023-12-14T02:46:03;1.33;;;1.20;;
73276;SDS011;61501;43.316;5.372;2023-12-14T02:48:29;2.20;;;1.23;;
73276;SDS011;61501;43.316;5.372;2023-12-14T02:50:55;2.15;;;1.40;;
73276;SDS011;61501;43.316;5.372;2023-12-14T02:53:20;1.55;;;1.20;;
73276;SDS011;61501;43.316;5.372;2023-12-14T02:55:46;2.08;;;1.15;;
73276;SDS011;61501;43.316;5.372;2023-12-14T02:58:12;2.65;;;1.30;;
73276;SDS011;61501;43.316;5.372;2023-12-14T03:00:37;3.08;;;1.33;;
73276;SDS011;61501;43.316;5.372;2023-12-14T03:03:03;2.03;;;1.25;;
73276;SDS011;61501;43.316;5.372;2023-12-14T03:05:29;1.95;;;1.20;;
73276;SDS011;61501;43.316;5.372;2023-12-14T03:07:54;3.05;;;1.40;;
73276;SDS011;61501;43.316;5.372;2023-12-14T03:10:20;1.42;;;1.08;;
73276;SDS011;61501;43.316;5.372;2023-12-14T03:12:45;1.52;;;1.02;;
73276;SDS011;61501;43.316;5.372;2023-12-14T03:15:11;2.65;;;1.33;;
73276;SDS011;61501;43.316;5.372;2023-12-14T03:17:36;1.63;;;1.30;;
73276;SDS011;61501;43.316;5.372;2023-12-14T03:20:02;2.72;;;1.30;;
73276;SDS011;61501;43.316;5.372;2023-12-14T03:22:30;3.08;;;1.40;;
73276;SDS011;61501;43.316;5.372;2023-12-14T03:24:56;2.22;;;1.58;;
73276;SDS011;61501;43.316;5.372;2023-12-14T03:27:21;1.98;;;1.40;;
73276;SDS011;61501;43.316;5.372;2023-12-14T03:29:48;1.88;;;1.40;;
73276;SDS011;61501;43.316;5.372;2023-12-14T03:32:14;3.92;;;1.58;;
73276;SDS011;61501;43.316;5.372;2023-12-14T03:34:39;1.23;;;1.10;;
73276;SDS011;61501;43.316;5.372;2023-12-14T03:37:05;1.55;;;1.20;;
73276;SDS011;61501;43.316;5.372;2023-12-14T03:39:31;1.60;;;1.10;;
73276;SDS011;61501;43.316;5.372;2023-12-14T03:41:57;2.55;;;1.27;;
73276;SDS011;61501;43.316;5.372;2023-12-14T03:44:23;1.98;;;1.27;;
73276;SDS011;61501;43.316;5.372;2023-12-14T03:46:49;1.80;;;1.25;;
73276;SDS011;61501;43.316;5.372;2023-12-14T03:49:15;2.05;;;1.33;;
73276;SDS011;61501;43.316;5.372;2023-12-14T03:51:40;1.77;;;1.40;;
73276;SDS011;61501;43.316;5.372;2023-12-14T03:54:06;1.40;;;1.10;;
73276;SDS011;61501;43.316;5.372;2023-12-14T03:56:32;3.05;;;1.50;;
73276;SDS011;61501;43.316;5.372;2023-12-14T03:58:58;2.97;;;1.17;;
73276;SDS011;61501;43.316;5.372;2023-12-14T04:01:23;1.85;;;1.45;;
73276;SDS011;61501;43.316;5.372;2023-12-14T04:03:49;1.77;;;1.10;;
73276;SDS011;61501;43.316;5.372;2023-12-14T04:06:15;3.08;;;1.10;;
73276;SDS011;61501;43.316;5.372;2023-12-14T04:08:41;1.90;;;1.42;;
73276;SDS011;61501;43.316;5.372;2023-12-14T04:11:07;2.83;;;1.30;;
73276;SDS011;61501;43.316;5.372;2023-12-14T04:13:33;2.75;;;1.30;;
73276;SDS011;61501;43.316;5.372;2023-12-14T04:15:59;2.17;;;1.30;;
73276;SDS011;61501;43.316;5.372;2023-12-14T04:18:25;2.38;;;1.30;;
73276;SDS011;61501;43.316;5.372;2023-12-14T04:20:50;1.95;;;1.30;;
73276;SDS011;61501;43.316;5.372;2023-12-14T04:23:16;2.35;;;1.40;;
73276;SDS011;61501;43.316;5.372;2023-12-14T04:25:42;2.88;;;1.10;;
73276;SDS011;61501;43.316;5.372;2023-12-14T04:28:07;2.25;;;1.17;;
73276;SDS011;61501;43.316;5.372;2023-12-14T04:30:33;2.08;;;1.40;;
73276;SDS011;61501;43.316;5.372;2023-12-14T04:32:59;1.92;;;1.17;;
73276;SDS011;61501;43.316;5.372;2023-12-14T04:35:24;2.05;;;1.30;;
73276;SDS011;61501;43.316;5.372;2023-12-14T04:37:50;1.85;;;1.17;;
73276;SDS011;61501;43.316;5.372;2023-12-14T04:40:16;2.78;;;1.10;;
73276;SDS011;61501;43.316;5.372;2023-12-14T04:42:42;3.80;;;1.20;;
73276;SDS011;61501;43.316;5.372;2023-12-14T04:45:07;2.35;;;1.45;;
73276;SDS011;61501;43.316;5.372;2023-12-14T04:47:37;2.83;;;1.23;;
73276;SDS011;61501;43.316;5.372;2023-12-14T04:50:03;1.77;;;1.13;;
73276;SDS011;61501;43.316;5.372;2023-12-14T04:52:29;1.73;;;1.20;;
73276;SDS011;61501;43.316;5.372;2023-12-14T04:54:55;2.05;;;1.33;;
73276;SDS011;61501;43.316;5.372;2023-12-14T04:57:20;2.03;;;1.30;;
73276;SDS011;61501;43.316;5.372;2023-12-14T04:59:46;1.83;;;1.10;;
73276;SDS011;61501;43.316;5.372;2023-12-14T05:02:12;1.80;;;1.27;;
73276;SDS011;61501;43.316;5.372;2023-12-14T05:04:37;1.27;;;1.10;;
73276;SDS011;61501;43.316;5.372;2023-12-14T05:07:03;2.17;;;1.00;;
73276;SDS011;61501;43.316;5.372;2023-12-14T05:09:29;1.38;;;1.15;;
73276;SDS011;61501;43.316;5.372;2023-12-14T05:11:54;1.52;;;1.20;;
73276;SDS011;61501;43.316;5.372;2023-12-14T05:14:20;1.95;;;1.20;;
73276;SDS011;61501;43.316;5.372;2023-12-14T05:16:46;2.53;;;1.27;;
73276;SDS011;61501;43.316;5.372;2023-12-14T05:19:11;1.33;;;1.00;;
73276;SDS011;61501;43.316;5.372;2023-12-14T05:21:40;2.05;;;1.08;;
73276;SDS011;61501;43.316;5.372;2023-12-14T05:24:05;1.23;;;1.00;;
73276;SDS011;61501;43.316;5.372;2023-12-14T05:26:31;1.73;;;1.10;;
73276;SDS011;61501;43.316;5.372;2023-12-14T05:28:57;3.03;;;1.30;;
73276;SDS011;61501;43.316;5.372;2023-12-14T05:31:23;3.30;;;1.33;;
73276;SDS011;61501;43.316;5.372;2023-12-14T05:33:48;3.92;;;1.30;;
73276;SDS011;61501;43.316;5.372;2023-12-14T05:36:14;2.47;;;1.20;;
73276;SDS011;61501;43.316;5.372;2023-12-14T05:38:40;3.03;;;1.40;;
73276;SDS011;61501;43.316;5.372;2023-12-14T05:41:06;3.03;;;1.27;;
73276;SDS011;61501;43.316;5.372;2023-12-14T05:43:32;2.60;;;1.35;;
73276;SDS011;61501;43.316;5.372;2023-12-14T05:45:58;5.47;;;1.33;;
73276;SDS011;61501;43.316;5.372;2023-12-14T05:48:23;2.15;;;1.27;;
73276;SDS011;61501;43.316;5.372;2023-12-14T05:50:51;1.70;;;1.02;;
73276;SDS011;61501;43.316;5.372;2023-12-14T05:53:17;1.95;;;1.10;;
73276;SDS011;61501;43.316;5.372;2023-12-14T05:55:43;4.32;;;1.40;;
73276;SDS011;61501;43.316;5.372;2023-12-14T05:58:09;2.85;;;1.70;;
73276;SDS011;61501;43.316;5.372;2023-12-14T06:00:35;2.70;;;1.30;;
73276;SDS011;61501;43.316;5.372;2023-12-14T06:03:01;2.47;;;1.20;;
73276;SDS011;61501;43.316;5.372;2023-12-14T06:05:27;2.10;;;1.33;;
73276;SDS011;61501;43.316;5.372;2023-12-14T06:07:53;4.05;;;1.35;;
73276;SDS011;61501;43.316;5.372;2023-12-14T06:10:18;2.95;;;1.30;;
73276;SDS011;61501;43.316;5.372;2023-12-14T06:12:44;4.63;;;1.30;;
73276;SDS011;61501;43.316;5.372;2023-12-14T06:15:10;2.22;;;1.35;;
73276;SDS011;61501;43.316;5.372;2023-12-14T06:17:36;1.80;;;1.27;;
73276;SDS011;61501;43.316;5.372;2023-12-14T06:20:04;3.28;;;1.30;;
73276;SDS011;61501;43.316;5.372;2023-12-14T06:22:33;4.18;;;1.38;;
73276;SDS011;61501;43.316;5.372;2023-12-14T06:25:01;2.33;;;1.58;;
73276;SDS011;61501;43.316;5.372;2023-12-14T06:27:28;5.45;;;1.50;;
73276;SDS011;61501;43.316;5.372;2023-12-14T06:29:53;3.65;;;1.45;;
73276;SDS011;61501;43.316;5.372;2023-12-14T06:32:19;4.00;;;1.70;;
73276;SDS011;61501;43.316;5.372;2023-12-14T06:34:45;4.30;;;1.67;;
73276;SDS011;61501;43.316;5.372;2023-12-14T06:37:10;5.00;;;1.65;;
73276;SDS011;61501;43.316;5.372;2023-12-14T06:39:36;3.67;;;1.77;;
73276;SDS011;61501;43.316;5.372;2023-12-14T06:42:01;5.00;;;1.60;;
73276;SDS011;61501;43.316;5.372;2023-12-14T06:44:27;4.80;;;1.40;;
73276;SDS011;61501;43.316;5.372;2023-12-14T06:46:55;4.13;;;1.50;;
73276;SDS011;61501;43.316;5.372;2023-12-14T06:49:23;2.35;;;1.33;;
73276;SDS011;61501;43.316;5.372;2023-12-14T06:51:50;2.75;;;1.63;;
73276;SDS011;61501;43.316;5.372;2023-12-14T06:54:15;2.95;;;1.30;;
73276;SDS011;61501;43.316;5.372;2023-12-14T06:56:41;7.20;;;1.70;;
73276;SDS011;61501;43.316;5.372;2023-12-14T06:59:07;2.85;;;1.10;;
73276;SDS011;61501;43.316;5.372;2023-12-14T07:01:32;3.20;;;1.50;;
73276;SDS011;61501;43.316;5.372;2023-12-14T07:03:58;3.38;;;1.20;;
73276;SDS011;61501;43.316;5.372;2023-12-14T07:06:24;4.18;;;1.20;;
73276;SDS011;61501;43.316;5.372;2023-12-14T07:08:55;3.00;;;1.13;;
73276;SDS011;61501;43.316;5.372;2023-12-14T07:11:21;3.65;;;1.40;;
73276;SDS011;61501;43.316;5.372;2023-12-14T07:13:46;3.47;;;1.30;;
73276;SDS011;61501;43.316;5.372;2023-12-14T07:16:12;2.10;;;1.20;;
73276;SDS011;61501;43.316;5.372;2023-12-14T07:18:41;4.65;;;1.40;;
73276;SDS011;61501;43.316;5.372;2023-12-14T07:21:07;5.57;;;1.33;;
73276;SDS011;61501;43.316;5.372;2023-12-14T07:23:33;8.60;;;1.83;;
73276;SDS011;61501;43.316;5.372;2023-12-14T07:26:00;7.90;;;1.42;;
73276;SDS011;61501;43.316;5.372;2023-12-14T07:28:26;1.60;;;1.25;;
73276;SDS011;61501;43.316;5.372;2023-12-14T07:30:52;2.50;;;1.63;;
73276;SDS011;61501;43.316;5.372;2023-12-14T07:33:18;3.03;;;1.30;;
73276;SDS011;61501;43.316;5.372;2023-12-14T07:35:44;3.17;;;1.27;;
73276;SDS011;61501;43.316;5.372;2023-12-14T07:38:09;4.88;;;1.55;;
73276;SDS011;61501;43.316;5.372;2023-12-14T07:40:35;3.90;;;1.60;;
73276;SDS011;61501;43.316;5.372;2023-12-14T07:43:01;2.03;;;1.42;;
73276;SDS011;61501;43.316;5.372;2023-12-14T07:45:27;2.03;;;1.30;;
73276;SDS011;61501;43.316;5.372;2023-12-14T07:47:53;4.57;;;1.40;;
73276;SDS011;61501;43.316;5.372;2023-12-14T07:50:19;2.22;;;1.38;;
73276;SDS011;61501;43.316;5.372;2023-12-14T07:52:44;3.78;;;1.38;;
73276;SDS011;61501;43.316;5.372;2023-12-14T07:55:10;3.50;;;1.30;;
73276;SDS011;61501;43.316;5.372;2023-12-14T07:57:38;2.47;;;1.40;;
73276;SDS011;61501;43.316;5.372;2023-12-14T08:00:04;1.65;;;1.20;;
73276;SDS011;61501;43.316;5.372;2023-12-14T08:02:30;3.00;;;1.55;;
73276;SDS011;61501;43.316;5.372;2023-12-14T08:04:56;3.30;;;1.42;;
73276;SDS011;61501;43.316;5.372;2023-12-14T08:07:22;6.97;;;1.77;;
73276;SDS011;61501;43.316;5.372;2023-12-14T08:09:47;4.03;;;1.23;;
73276;SDS011;61501;43.316;5.372;2023-12-14T08:12:13;6.25;;;1.65;;
73276;SDS011;61501;43.316;5.372;2023-12-14T08:14:39;2.10;;;1.00;;
73276;SDS011;61501;43.316;5.372;2023-12-14T08:17:08;2.70;;;1.40;;
73276;SDS011;61501;43.316;5.372;2023-12-14T08:19:34;2.65;;;1.15;;
73276;SDS011;61501;43.316;5.372;2023-12-14T08:22:00;6.38;;;1.50;;
73276;SDS011;61501;43.316;5.372;2023-12-14T08:24:25;3.70;;;1.45;;
73276;SDS011;61501;43.316;5.372;2023-12-14T08:26:51;3.95;;;1.40;;
73276;SDS011;61501;43.316;5.372;2023-12-14T08:29:16;3.88;;;1.52;;
73276;SDS011;61501;43.316;5.372;2023-12-14T08:31:42;5.25;;;1.55;;
73276;SDS011;61501;43.316;5.372;2023-12-14T08:34:08;7.75;;;2.05;;
73276;SDS011;61501;43.316;5.372;2023-12-14T08:36:34;4.32;;;1.40;;
73276;SDS011;61501;43.316;5.372;2023-12-14T08:38:59;3.88;;;1.67;;
73276;SDS011;61501;43.316;5.372;2023-12-14T08:41:25;4.13;;;1.60;;
73276;SDS011;61501;43.316;5.372;2023-12-14T08:43:50;10.40;;;1.30;;
73276;SDS011;61501;43.316;5.372;2023-12-14T08:46:16;4.47;;;1.40;;
73276;SDS011;61501;43.316;5.372;2023-12-14T08:48:42;7.65;;;1.80;;
73276;SDS011;61501;43.316;5.372;2023-12-14T08:51:10;7.65;;;1.52;;
73276;SDS011;61501;43.316;5.372;2023-12-14T08:53:36;3.95;;;1.25;;
73276;SDS011;61501;43.316;5.372;2023-12-14T08:56:03;5.68;;;1.30;;
73276;SDS011;61501;43.316;5.372;2023-12-14T08:58:29;3.72;;;1.50;;
73276;SDS011;61501;43.316;5.372;2023-12-14T09:00:54;3.92;;;1.15;;
73276;SDS011;61501;43.316;5.372;2023-12-14T09:03:20;3.45;;;1.25;;
73276;SDS011;61501;43.316;5.372;2023-12-14T09:05:46;5.78;;;1.20;;
73276;SDS011;61501;43.316;5.372;2023-12-14T09:08:12;3.53;;;1.50;;
73276;SDS011;61501;43.316;5.372;2023-12-14T09:10:40;5.15;;;1.67;;
73276;SDS011;61501;43.316;5.372;2023-12-14T09:13:06;4.75;;;1.45;;
73276;SDS011;61501;43.316;5.372;2023-12-14T09:15:32;4.18;;;1.23;;
73276;SDS011;61501;43.316;5.372;2023-12-14T09:17:58;5.22;;;1.40;;
73276;SDS011;61501;43.316;5.372;2023-12-14T09:20:24;10.00;;;1.73;;
73276;SDS011;61501;43.316;5.372;2023-12-14T09:22:50;3.10;;;1.30;;
73276;SDS011;61501;43.316;5.372;2023-12-14T09:25:18;3.55;;;1.65;;
73276;SDS011;61501;43.316;5.372;2023-12-14T09:27:47;3.13;;;1.50;;
73276;SDS011;61501;43.316;5.372;2023-12-14T09:30:12;6.55;;;1.50;;
73276;SDS011;61501;43.316;5.372;2023-12-14T09:32:38;6.43;;;1.40;;
73276;SDS011;61501;43.316;5.372;2023-12-14T09:35:05;4.93;;;1.40;;
73276;SDS011;61501;43.316;5.372;2023-12-14T09:37:31;3.53;;;1.60;;
73276;SDS011;61501;43.316;5.372;2023-12-14T09:39:57;2.55;;;1.23;;
73276;SDS011;61501;43.316;5.372;2023-12-14T09:42:23;5.45;;;1.80;;
73276;SDS011;61501;43.316;5.372;2023-12-14T09:44:49;3.53;;;1.23;;
73276;SDS011;61501;43.316;5.372;2023-12-14T09:47:16;6.38;;;1.70;;
73276;SDS011;61501;43.316;5.372;2023-12-14T09:49:41;6.82;;;1.50;;
73276;SDS011;61501;43.316;5.372;2023-12-14T09:52:10;2.95;;;1.25;;
73276;SDS011;61501;43.316;5.372;2023-12-14T09:54:37;6.93;;;2.05;;
73276;SDS011;61501;43.316;5.372;2023-12-14T09:57:03;2.13;;;1.35;;
73276;SDS011;61501;43.316;5.372;2023-12-14T09:59:29;11.48;;;1.77;;
73276;SDS011;61501;43.316;5.372;2023-12-14T10:02:13;2.10;;;1.40;;
73276;SDS011;61501;43.316;5.372;2023-12-14T10:04:39;5.97;;;1.45;;
73276;SDS011;61501;43.316;5.372;2023-12-14T10:07:05;1.85;;;1.02;;
73276;SDS011;61501;43.316;5.372;2023-12-14T10:09:36;3.35;;;1.10;;
73276;SDS011;61501;43.316;5.372;2023-12-14T10:12:03;4.43;;;1.00;;
73276;SDS011;61501;43.316;5.372;2023-12-14T10:14:30;3.90;;;1.33;;
73276;SDS011;61501;43.316;5.372;2023-12-14T10:16:56;3.92;;;1.20;;
73276;SDS011;61501;43.316;5.372;2023-12-14T10:19:23;3.35;;;1.08;;
73276;SDS011;61501;43.316;5.372;2023-12-14T10:21:49;1.35;;;1.00;;
73276;SDS011;61501;43.316;5.372;2023-12-14T10:24:15;5.50;;;1.42;;
73276;SDS011;61501;43.316;5.372;2023-12-14T10:26:43;4.15;;;1.63;;
73276;SDS011;61501;43.316;5.372;2023-12-14T10:29:10;7.70;;;1.50;;
73276;SDS011;61501;43.316;5.372;2023-12-14T10:31:36;5.15;;;1.27;;
73276;SDS011;61501;43.316;5.372;2023-12-14T10:34:03;8.82;;;1.88;;
73276;SDS011;61501;43.316;5.372;2023-12-14T10:36:29;3.45;;;1.23;;
73276;SDS011;61501;43.316;5.372;2023-12-14T10:38:59;4.68;;;1.27;;
73276;SDS011;61501;43.316;5.372;2023-12-14T10:41:26;3.53;;;1.13;;
73276;SDS011;61501;43.316;5.372;2023-12-14T10:43:55;4.28;;;1.20;;
73276;SDS011;61501;43.316;5.372;2023-12-14T10:46:25;6.25;;;2.00;;
73276;SDS011;61501;43.316;5.372;2023-12-14T10:48:51;4.88;;;1.65;;
73276;SDS011;61501;43.316;5.372;2023-12-14T10:51:20;5.07;;;1.60;;
73276;SDS011;61501;43.316;5.372;2023-12-14T10:53:48;4.07;;;1.30;;
73276;SDS011;61501;43.316;5.372;2023-12-14T10:56:17;4.68;;;1.50;;
73276;SDS011;61501;43.316;5.372;2023-12-14T10:59:01;6.07;;;1.45;;
73276;SDS011;61501;43.316;5.372;2023-12-14T11:01:28;10.18;;;2.00;;
73276;SDS011;61501;43.316;5.372;2023-12-14T11:03:58;3.25;;;1.40;;
73276;SDS011;61501;43.316;5.372;2023-12-14T11:09:06;2.45;;;1.25;;
73276;SDS011;61501;43.316;5.372;2023-12-14T11:14:24;4.45;;;1.40;;
73276;SDS011;61501;43.316;5.372;2023-12-14T11:16:53;3.05;;;1.27;;
73276;SDS011;61501;43.316;5.372;2023-12-14T11:19:30;3.35;;;1.10;;
73276;SDS011;61501;43.316;5.372;2023-12-14T11:24:36;4.00;;;1.08;;
73276;SDS011;61501;43.316;5.372;2023-12-14T11:27:06;2.22;;;1.20;;
73276;SDS011;61501;43.316;5.372;2023-12-14T11:29:41;2.63;;;1.20;;
73276;SDS011;61501;43.316;5.372;2023-12-14T11:32:11;4.85;;;1.10;;
73276;SDS011;61501;43.316;5.372;2023-12-14T11:34:38;2.35;;;0.80;;
73276;SDS011;61501;43.316;5.372;2023-12-14T11:37:04;3.30;;;1.02;;
73276;SDS011;61501;43.316;5.372;2023-12-14T11:39:31;2.88;;;1.23;;
73276;SDS011;61501;43.316;5.372;2023-12-14T11:42:00;4.65;;;0.95;;
73276;SDS011;61501;43.316;5.372;2023-12-14T11:44:27;5.68;;;1.05;;
73276;SDS011;61501;43.316;5.372;2023-12-14T11:46:53;3.17;;;1.08;;
73276;SDS011;61501;43.316;5.372;2023-12-14T11:49:19;3.80;;;1.00;;
73276;SDS011;61501;43.316;5.372;2023-12-14T11:51:50;4.20;;;1.10;;
73276;SDS011;61501;43.316;5.372;2023-12-14T11:54:17;4.32;;;1.00;;
73276;SDS011;61501;43.316;5.372;2023-12-14T11:56:47;6.13;;;1.63;;
73276;SDS011;61501;43.316;5.372;2023-12-14T11:59:16;2.65;;;0.90;;
73276;SDS011;61501;43.316;5.372;2023-12-14T12:01:57;3.65;;;1.00;;
73276;SDS011;61501;43.316;5.372;2023-12-14T12:04:25;4.75;;;1.08;;
73276;SDS011;61501;43.316;5.372;2023-12-14T12:06:58;5.65;;;0.80;;
73276;SDS011;61501;43.316;5.372;2023-12-14T12:09:34;4.07;;;1.00;;
73276;SDS011;61501;43.316;5.372;2023-12-14T12:12:09;0.98;;;0.75;;
73276;SDS011;61501;43.316;5.372;2023-12-14T12:14:36;8.55;;;1.45;;
73276;SDS011;61501;43.316;5.372;2023-12-14T12:17:02;5.95;;;1.13;;
73276;SDS011;61501;43.316;5.372;2023-12-14T12:19:33;4.78;;;0.90;;
73276;SDS011;61501;43.316;5.372;2023-12-14T12:21:59;8.15;;;1.17;;
73276;SDS011;61501;43.316;5.372;2023-12-14T12:24:25;8.32;;;1.17;;
73276;SDS011;61501;43.316;5.372;2023-12-14T12:26:51;5.05;;;0.85;;
73276;SDS011;61501;43.316;5.372;2023-12-14T12:29:16;9.38;;;0.98;;
73276;SDS011;61501;43.316;5.372;2023-12-14T12:31:43;4.68;;;0.90;;
73276;SDS011;61501;43.316;5.372;2023-12-14T12:34:10;5.65;;;0.80;;
73276;SDS011;61501;43.316;5.372;2023-12-14T12:36:36;4.85;;;0.82;;
73276;SDS011;61501;43.316;5.372;2023-12-14T12:39:02;12.95;;;1.55;;
73276;SDS011;61501;43.316;5.372;2023-12-14T12:41:30;5.00;;;0.85;;
73276;SDS011;61501;43.316;5.372;2023-12-14T12:43:56;3.47;;;1.13;;
73276;SDS011;61501;43.316;5.372;2023-12-14T12:46:22;3.80;;;0.70;;
73276;SDS011;61501;43.316;5.372;2023-12-14T12:48:48;3.85;;;0.85;;
73276;SDS011;61501;43.316;5.372;2023-12-14T12:51:16;2.30;;;0.63;;
73276;SDS011;61501;43.316;5.372;2023-12-14T12:53:42;4.50;;;1.00;;
73276;SDS011;61501;43.316;5.372;2023-12-14T12:56:07;3.40;;;0.80;;
73276;SDS011;61501;43.316;5.372;2023-12-14T12:58:33;2.92;;;0.68;;
73276;SDS011;61501;43.316;5.372;2023-12-14T13:00:59;2.80;;;0.75;;
73276;SDS011;61501;43.316;5.372;2023-12-14T13:03:24;4.90;;;1.10;;
73276;SDS011;61501;43.316;5.372;2023-12-14T13:05:50;4.00;;;0.77;;
73276;SDS011;61501;43.316;5.372;2023-12-14T13:08:16;1.75;;;0.75;;
73276;SDS011;61501;43.316;5.372;2023-12-14T13:10:42;3.45;;;0.60;;
73276;SDS011;61501;43.316;5.372;2023-12-14T13:13:08;4.68;;;0.80;;
73276;SDS011;61501;43.316;5.372;2023-12-14T13:15:34;2.70;;;0.80;;
73276;SDS011;61501;43.316;5.372;2023-12-14T13:18:04;5.03;;;0.90;;
73276;SDS011;61501;43.316;5.372;2023-12-14T13:20:29;2.33;;;0.70;;
73276;SDS011;61501;43.316;5.372;2023-12-14T13:22:55;7.38;;;0.90;;
73276;SDS011;61501;43.316;5.372;2023-12-14T13:25:20;2.05;;;0.55;;
73276;SDS011;61501;43.316;5.372;2023-12-14T13:27:51;4.82;;;0.90;;
73276;SDS011;61501;43.316;5.372;2023-12-14T13:30:16;6.43;;;0.90;;
73276;SDS011;61501;43.316;5.372;2023-12-14T13:32:42;5.28;;;0.70;;
73276;SDS011;61501;43.316;5.372;2023-12-14T13:35:08;3.53;;;0.70;;
73276;SDS011;61501;43.316;5.372;2023-12-14T13:37:34;2.67;;;0.70;;
73276;SDS011;61501;43.316;5.372;2023-12-14T13:40:00;2.22;;;0.82;;
73276;SDS011;61501;43.316;5.372;2023-12-14T13:42:25;3.47;;;0.70;;
73276;SDS011;61501;43.316;5.372;2023-12-14T13:44:51;4.50;;;0.88;;
73276;SDS011;61501;43.316;5.372;2023-12-14T13:47:17;2.65;;;0.77;;
73276;SDS011;61501;43.316;5.372;2023-12-14T13:49:42;5.68;;;0.90;;
73276;SDS011;61501;43.316;5.372;2023-12-14T13:52:08;4.28;;;0.95;;
73276;SDS011;61501;43.316;5.372;2023-12-14T13:54:34;4.13;;;0.80;;
73276;SDS011;61501;43.316;5.372;2023-12-14T13:57:01;1.35;;;0.60;;
73276;SDS011;61501;43.316;5.372;2023-12-14T13:59:27;4.57;;;0.80;;
73276;SDS011;61501;43.316;5.372;2023-12-14T14:01:53;3.33;;;0.63;;
73276;SDS011;61501;43.316;5.372;2023-12-14T14:04:19;5.55;;;1.00;;
73276;SDS011;61501;43.316;5.372;2023-12-14T14:06:44;9.40;;;1.15;;
73276;SDS011;61501;43.316;5.372;2023-12-14T14:09:11;1.63;;;0.60;;
73276;SDS011;61501;43.316;5.372;2023-12-14T14:11:37;3.50;;;0.73;;
73276;SDS011;61501;43.316;5.372;2023-12-14T14:14:03;1.25;;;0.60;;
73276;SDS011;61501;43.316;5.372;2023-12-14T14:16:31;2.63;;;0.85;;
73276;SDS011;61501;43.316;5.372;2023-12-14T14:18:57;2.72;;;0.88;;
73276;SDS011;61501;43.316;5.372;2023-12-14T14:21:23;8.38;;;0.93;;
73276;SDS011;61501;43.316;5.372;2023-12-14T14:23:49;3.40;;;1.00;;
73276;SDS011;61501;43.316;5.372;2023-12-14T14:26:14;3.60;;;0.80;;
73276;SDS011;61501;43.316;5.372;2023-12-14T14:28:40;2.40;;;0.70;;
73276;SDS011;61501;43.316;5.372;2023-12-14T14:31:06;3.40;;;0.98;;
73276;SDS011;61501;43.316;5.372;2023-12-14T14:33:32;5.28;;;1.02;;
73276;SDS011;61501;43.316;5.372;2023-12-14T14:35:57;4.63;;;1.17;;
73276;SDS011;61501;43.316;5.372;2023-12-14T14:38:23;2.05;;;0.60;;
73276;SDS011;61501;43.316;5.372;2023-12-14T14:40:49;2.95;;;0.68;;
73276;SDS011;61501;43.316;5.372;2023-12-14T14:43:14;2.17;;;0.57;;
73276;SDS011;61501;43.316;5.372;2023-12-14T14:45:40;2.05;;;0.50;;
73276;SDS011;61501;43.316;5.372;2023-12-14T14:48:06;1.02;;;0.55;;
73276;SDS011;61501;43.316;5.372;2023-12-14T14:50:33;1.25;;;0.60;;